createdAt,value
2023-03-23T00:03:41.372Z,534.00
2023-03-23T00:07:41.446Z,527.00
2023-03-23T00:11:41.648Z,527.00
2023-03-23T00:15:41.852Z,532.00
2023-03-23T00:19:41.585Z,529.00
2023-03-23T00:23:41.543Z,523.00
2023-03-23T00:27:41.540Z,515.00
2023-03-23T00:31:41.487Z,513.00
2023-03-23T00:35:41.739Z,515.00
2023-03-23T00:39:41.405Z,509.00
2023-03-23T00:43:41.369Z,508.00
2023-03-23T00:47:41.311Z,510.00
2023-03-23T00:51:41.425Z,507.00
2023-03-23T00:55:41.725Z,500.00
2023-03-23T00:59:41.785Z,508.00
2023-03-23T01:03:41.873Z,507.00
2023-03-23T01:07:42.032Z,510.00
2023-03-23T01:11:42.168Z,508.00
2023-03-23T01:15:42.623Z,501.00
2023-03-23T01:19:42.463Z,504.00
2023-03-23T01:23:42.635Z,508.00
2023-03-23T01:27:42.772Z,505.00
2023-03-23T01:31:42.866Z,503.00
2023-03-23T01:35:43.145Z,493.00
2023-03-23T01:39:42.929Z,492.00
2023-03-23T01:43:42.972Z,489.00
2023-03-23T01:47:42.974Z,489.00
2023-03-23T01:51:42.969Z,492.00
2023-03-23T01:55:43.163Z,490.00
2023-03-23T01:59:43.025Z,496.00
2023-03-23T02:03:43.021Z,494.00
2023-03-23T02:07:43.125Z,495.00
2023-03-23T02:11:42.996Z,495.00
2023-03-23T02:15:43.225Z,497.00
2023-03-23T02:19:42.961Z,493.00
2023-03-23T02:23:42.961Z,494.00
2023-03-23T02:27:42.950Z,488.00
2023-03-23T02:31:42.972Z,491.00
2023-03-23T02:35:43.445Z,495.00
2023-03-23T02:39:42.910Z,491.00
2023-03-23T02:43:42.888Z,493.00
2023-03-23T02:47:42.873Z,492.00
2023-03-23T02:51:42.863Z,491.00
2023-03-23T02:55:43.286Z,492.00
2023-03-23T02:59:42.796Z,487.00
2023-03-23T03:03:42.810Z,488.00
2023-03-23T03:07:42.797Z,483.00
2023-03-23T03:11:42.787Z,484.00
2023-03-23T03:15:42.905Z,482.00
2023-03-23T03:19:42.797Z,479.00
2023-03-23T03:23:42.794Z,478.00
2023-03-23T03:27:42.797Z,486.00
2023-03-23T03:31:42.787Z,480.00
2023-03-23T03:35:43.058Z,485.00
2023-03-23T03:39:42.740Z,484.00
2023-03-23T03:43:42.728Z,483.00
2023-03-23T03:47:42.762Z,485.00
2023-03-23T03:51:42.727Z,479.00
2023-03-23T03:55:42.932Z,478.00
2023-03-23T03:59:42.712Z,478.00
2023-03-23T04:03:42.941Z,476.00
2023-03-23T04:07:42.685Z,475.00
2023-03-23T04:11:42.675Z,477.00
2023-03-23T04:15:43.097Z,473.00
2023-03-23T04:19:43.745Z,475.00
2023-03-23T04:23:42.634Z,477.00
2023-03-23T04:27:42.581Z,480.00
2023-03-23T04:31:42.532Z,481.00
2023-03-23T04:35:42.799Z,478.00
2023-03-23T04:39:42.508Z,479.00
2023-03-23T04:43:42.447Z,478.00
2023-03-23T04:47:42.434Z,480.00
2023-03-23T04:51:42.404Z,477.00
2023-03-23T04:55:42.540Z,478.00
2023-03-23T04:59:42.287Z,480.00
2023-03-23T05:03:42.294Z,474.00
2023-03-23T05:07:42.231Z,472.00
2023-03-23T05:11:42.183Z,470.00
2023-03-23T05:15:42.380Z,472.00
2023-03-23T05:19:42.088Z,471.00
2023-03-23T05:23:42.073Z,476.00
2023-03-23T05:27:42.031Z,478.00
2023-03-23T05:31:42.011Z,476.00
2023-03-23T05:35:42.403Z,470.00
2023-03-23T05:39:41.916Z,470.00
2023-03-23T05:43:41.858Z,470.00
2023-03-23T05:47:41.903Z,470.00
2023-03-23T05:51:41.809Z,472.00
2023-03-23T05:55:41.835Z,470.00
2023-03-23T05:59:42.948Z,467.00
2023-03-23T06:03:41.696Z,466.00
2023-03-23T06:07:41.626Z,470.00
2023-03-23T06:11:41.626Z,471.00
2023-03-23T06:15:41.805Z,470.00
2023-03-23T06:19:41.542Z,474.00
2023-03-23T06:23:41.543Z,477.00
2023-03-23T06:27:41.556Z,474.00
2023-03-23T06:31:42.055Z,470.00
2023-03-23T06:35:41.709Z,465.00
2023-03-23T06:39:41.534Z,507.00
2023-03-23T06:43:41.327Z,551.00
2023-03-23T06:47:41.559Z,648.00
2023-03-23T06:51:41.410Z,725.00
2023-03-23T06:55:44.543Z,813.00
2023-03-23T06:59:41.556Z,926.00
2023-03-23T07:03:41.564Z,1009.00
2023-03-23T07:07:41.255Z,1078.00
2023-03-23T07:11:41.289Z,1136.00
2023-03-23T07:15:41.664Z,1235.00
2023-03-23T07:19:41.157Z,1289.00
2023-03-23T07:23:41.078Z,1376.00
2023-03-23T07:27:41.059Z,1431.00
2023-03-23T07:31:41.010Z,1504.00
2023-03-23T07:35:41.178Z,1551.00
2023-03-23T07:39:40.939Z,1635.00
2023-03-23T07:43:41.069Z,1699.00
2023-03-23T07:47:41.066Z,1689.00
2023-03-23T07:51:41.056Z,1384.00
2023-03-23T07:55:40.937Z,1164.00
2023-03-23T07:59:40.786Z,1277.00
2023-03-23T08:03:41.048Z,1385.00
2023-03-23T08:07:41.131Z,1450.00
2023-03-23T08:11:40.801Z,1537.00
2023-03-23T08:15:41.065Z,1572.00
2023-03-23T08:19:41.099Z,1691.00
2023-03-23T08:23:40.868Z,1732.00
2023-03-23T08:27:41.010Z,1790.00
2023-03-23T08:31:41.094Z,1876.00
2023-03-23T08:35:41.134Z,1920.00
2023-03-23T08:39:41.164Z,2000.00
2023-03-23T08:43:40.816Z,1996.00
2023-03-23T08:47:41.080Z,1932.00
2023-03-23T08:51:41.091Z,1929.00
2023-03-23T08:55:41.287Z,1860.00
2023-03-23T08:59:40.696Z,1826.00
2023-03-23T09:03:41.108Z,1811.00
2023-03-23T09:07:41.140Z,1797.00
2023-03-23T09:11:40.580Z,1776.00
2023-03-23T09:15:46.518Z,1781.00
2023-03-23T09:19:41.594Z,1752.00
2023-03-23T09:23:40.607Z,1691.00
2023-03-23T09:27:40.494Z,1690.00
2023-03-23T09:31:40.405Z,1674.00
2023-03-23T09:35:40.588Z,1647.00
2023-03-23T09:39:40.583Z,1688.00
2023-03-23T09:43:40.674Z,1715.00
2023-03-23T09:47:40.613Z,1795.00
2023-03-23T09:51:40.525Z,1915.00
2023-03-23T09:55:40.800Z,1535.00
2023-03-23T09:59:40.682Z,1665.00
2023-03-23T10:03:41.118Z,1603.00
2023-03-23T10:07:40.812Z,1655.00
2023-03-23T10:11:40.829Z,1653.00
2023-03-23T10:15:40.975Z,1667.00
2023-03-23T10:19:40.789Z,1718.00
2023-03-23T10:23:41.119Z,1809.00
2023-03-23T10:27:40.746Z,1854.00
2023-03-23T10:31:40.680Z,1909.00
2023-03-23T10:35:41.028Z,1977.00
2023-03-23T10:39:40.615Z,2066.00
2023-03-23T10:43:40.636Z,1961.00
2023-03-23T10:47:40.537Z,1949.00
2023-03-23T10:51:40.675Z,1868.00
2023-03-23T10:55:40.858Z,1917.00
2023-03-23T10:59:40.500Z,1947.00
2023-03-23T11:03:41.173Z,1949.00
2023-03-23T11:07:40.874Z,1887.00
2023-03-23T11:11:41.109Z,1894.00
2023-03-23T11:15:41.822Z,1888.00
2023-03-23T11:19:41.538Z,1840.00
2023-03-23T11:23:41.765Z,1843.00
2023-03-23T11:27:41.969Z,1834.00
2023-03-23T11:31:42.667Z,1841.00
2023-03-23T11:35:42.622Z,1827.00
2023-03-23T11:39:42.555Z,1708.00
2023-03-23T11:43:42.660Z,1681.00
2023-03-23T11:47:42.477Z,1609.00
2023-03-23T11:51:42.674Z,1562.00
2023-03-23T11:55:42.531Z,1523.00
2023-03-23T11:59:42.379Z,1497.00
2023-03-23T12:03:42.345Z,1440.00
2023-03-23T12:07:42.298Z,1395.00
2023-03-23T12:11:42.254Z,1352.00
2023-03-23T12:15:42.367Z,1313.00
2023-03-23T12:19:42.188Z,1284.00
2023-03-23T12:23:42.235Z,1239.00
2023-03-23T12:27:42.232Z,1201.00
2023-03-23T12:31:42.111Z,1064.00
2023-03-23T12:35:42.274Z,1090.00
2023-03-23T12:39:42.218Z,1099.00
2023-03-23T12:43:42.002Z,1005.00
2023-03-23T12:47:41.906Z,995.00
2023-03-23T12:51:41.881Z,995.00
2023-03-23T12:55:42.292Z,955.00
2023-03-23T12:59:41.806Z,937.00
2023-03-23T13:03:41.793Z,918.00
2023-03-23T13:07:49.216Z,897.00
2023-03-23T13:11:41.742Z,881.00
2023-03-23T13:15:41.749Z,865.00
2023-03-23T13:19:41.675Z,844.00
2023-03-23T13:23:41.658Z,823.00
2023-03-23T13:27:41.746Z,811.00
2023-03-23T13:31:48.762Z,798.00
2023-03-23T13:35:41.518Z,778.00
2023-03-23T13:39:41.461Z,761.00
2023-03-23T13:43:41.446Z,746.00
2023-03-23T13:47:41.377Z,732.00
2023-03-23T13:51:41.381Z,725.00
2023-03-23T13:55:41.398Z,710.00
2023-03-23T13:59:41.299Z,703.00
2023-03-23T14:03:41.239Z,698.00
2023-03-23T14:07:41.213Z,704.00
2023-03-23T14:11:41.164Z,695.00
2023-03-23T14:15:41.402Z,691.00
2023-03-23T14:19:41.272Z,691.00
2023-03-23T14:23:41.063Z,696.00
2023-03-23T14:27:40.999Z,632.00
2023-03-23T14:31:40.935Z,670.00
2023-03-23T14:35:40.910Z,676.00
2023-03-23T14:39:40.926Z,664.00
2023-03-23T14:43:40.996Z,686.00
2023-03-23T14:47:41.036Z,696.00
2023-03-23T14:51:41.106Z,699.00
2023-03-23T14:55:41.246Z,700.00
2023-03-23T14:59:41.311Z,701.00
2023-03-23T15:03:50.149Z,701.00
2023-03-23T15:07:41.272Z,692.00
2023-03-23T15:11:41.308Z,691.00
2023-03-23T15:15:41.399Z,693.00
2023-03-23T15:19:41.144Z,691.00
2023-03-23T15:23:41.098Z,682.00
2023-03-23T15:27:41.047Z,677.00
2023-03-23T15:31:41.042Z,675.00
2023-03-23T15:35:41.035Z,673.00
2023-03-23T15:39:40.934Z,672.00
2023-03-23T15:43:40.921Z,671.00
2023-03-23T15:47:41.065Z,666.00
2023-03-23T15:51:40.864Z,664.00
2023-03-23T15:55:40.821Z,661.00
2023-03-23T15:59:40.749Z,656.00
2023-03-23T16:03:40.737Z,657.00
2023-03-23T16:07:40.889Z,656.00
2023-03-23T16:11:40.688Z,656.00
2023-03-23T16:15:40.623Z,652.00
2023-03-23T16:19:40.584Z,646.00
2023-03-23T16:23:40.569Z,639.00
2023-03-23T16:27:40.516Z,638.00
2023-03-23T16:31:40.474Z,640.00
2023-03-23T16:35:40.541Z,638.00
2023-03-23T16:39:40.396Z,640.00
2023-03-23T16:43:40.411Z,640.00
2023-03-23T16:47:40.551Z,636.00
2023-03-23T16:51:41.748Z,630.00
2023-03-23T16:55:40.778Z,633.00
2023-03-23T16:59:40.775Z,632.00
2023-03-23T17:03:43.344Z,629.00
2023-03-23T17:07:40.887Z,628.00
2023-03-23T17:11:40.777Z,626.00
2023-03-23T17:15:40.721Z,618.00
2023-03-23T17:19:40.682Z,615.00
2023-03-23T17:23:40.642Z,609.00
2023-03-23T17:27:40.705Z,605.00
2023-03-23T17:31:40.620Z,602.00
2023-03-23T17:35:40.522Z,599.00
2023-03-23T17:39:42.586Z,596.00
2023-03-23T17:43:40.500Z,592.00
2023-03-23T17:47:40.435Z,591.00
2023-03-23T17:51:40.353Z,588.00
2023-03-23T17:55:40.343Z,583.00
2023-03-23T17:59:40.267Z,579.00
2023-03-23T18:03:40.331Z,575.00
2023-03-23T18:07:40.219Z,575.00
2023-03-23T18:11:40.177Z,577.00
2023-03-23T18:15:40.133Z,572.00
2023-03-23T18:19:40.108Z,568.00
2023-03-23T18:23:49.018Z,568.00
2023-03-23T18:27:41.027Z,572.00
2023-03-23T18:31:40.281Z,565.00
2023-03-23T18:35:39.957Z,566.00
2023-03-23T18:39:39.934Z,564.00
2023-03-23T18:43:39.954Z,564.00
2023-03-23T18:47:40.058Z,558.00
2023-03-23T18:51:40.119Z,555.00
2023-03-23T18:55:40.182Z,554.00
2023-03-23T18:59:40.268Z,553.00
2023-03-23T19:03:40.474Z,552.00
2023-03-23T19:07:40.466Z,547.00
2023-03-23T19:11:40.551Z,547.00
2023-03-23T19:15:40.642Z,543.00
2023-03-23T19:19:40.705Z,540.00
2023-03-23T19:23:40.815Z,544.00
2023-03-23T19:28:18.204Z,547.00
2023-03-23T19:31:43.277Z,550.00
2023-03-23T19:35:40.848Z,552.00
2023-03-23T19:39:41.865Z,546.00
2023-03-23T19:43:40.751Z,547.00
2023-03-23T19:47:40.717Z,546.00
2023-03-23T19:51:40.768Z,545.00
2023-03-23T19:55:40.842Z,539.00
2023-03-23T19:59:40.941Z,538.00
2023-03-23T20:03:41.040Z,535.00
2023-03-23T20:07:44.508Z,534.00
2023-03-23T20:11:42.192Z,537.00
2023-03-23T20:15:41.072Z,531.00
2023-03-23T20:19:41.515Z,531.00
2023-03-23T20:23:40.963Z,531.00
2023-03-23T20:27:41.121Z,533.00
2023-03-23T20:31:41.157Z,529.00
2023-03-23T20:35:41.302Z,526.00
2023-03-23T20:39:41.377Z,523.00
2023-03-23T20:43:41.469Z,522.00
2023-03-23T20:47:41.690Z,519.00
2023-03-23T20:51:41.720Z,520.00
2023-03-23T20:55:41.824Z,516.00
2023-03-23T20:59:41.912Z,516.00
2023-03-23T21:03:41.994Z,512.00
2023-03-23T21:07:42.130Z,515.00
2023-03-23T21:11:42.262Z,514.00
2023-03-23T21:15:42.507Z,512.00
2023-03-23T21:19:42.451Z,511.00
2023-03-23T21:23:42.560Z,504.00
2023-03-23T21:27:42.734Z,510.00
2023-03-23T21:31:42.838Z,511.00
2023-03-23T21:35:42.986Z,512.00
2023-03-23T21:39:43.114Z,510.00
2023-03-23T21:43:43.290Z,507.00
2023-03-23T21:47:43.403Z,503.00
2023-03-23T21:51:43.532Z,504.00
2023-03-23T21:55:43.643Z,507.00
2023-03-23T21:59:43.797Z,504.00
2023-03-23T22:03:43.939Z,505.00
2023-03-23T22:07:44.107Z,506.00
2023-03-23T22:11:44.262Z,504.00
2023-03-23T22:15:44.457Z,506.00
2023-03-23T22:19:44.573Z,505.00
2023-03-23T22:23:44.721Z,504.00
2023-03-23T22:27:44.881Z,505.00
2023-03-23T22:31:45.135Z,508.00
2023-03-23T22:35:47.393Z,501.00
2023-03-23T22:39:45.141Z,503.00
2023-03-23T22:43:45.074Z,497.00
2023-03-23T22:47:45.046Z,496.00
2023-03-23T22:51:45.008Z,498.00
2023-03-23T22:55:44.946Z,492.00
2023-03-23T22:59:44.922Z,497.00
2023-03-23T23:03:44.944Z,494.00
2023-03-23T23:07:44.827Z,491.00
2023-03-23T23:11:44.799Z,494.00
2023-03-23T23:15:44.769Z,492.00
2023-03-23T23:19:44.753Z,497.00
2023-03-23T23:23:44.705Z,495.00
2023-03-23T23:27:44.645Z,497.00
2023-03-23T23:31:44.844Z,495.00
2023-03-23T23:35:45.092Z,487.00
2023-03-23T23:39:45.259Z,489.00
2023-03-23T23:43:45.455Z,491.00
2023-03-23T23:47:45.737Z,489.00
2023-03-23T23:51:45.832Z,490.00
2023-03-23T23:55:46.022Z,488.00
2023-03-23T23:59:46.175Z,492.00
